Time;durP1;ratioP1;P1;durP2;ratioP2;P2;SDS_P1;SDS_P2;PMS_P1;PMS_P2;Temp;Humidity;BMP_temperature;BMP_pressure;BME280_temperature;BME280_humidity;BME280_pressure;Samples;Min_cycle;Max_cycle;Signal;HPM_P1;HPM_P2
2021/12/19 00:02:45;;;;;;;22.25;13.88;;;;;;;5.92;68.52;101701.47;10391244;28;20067;-67
2021/12/19 00:13:09;;;;;;;16.90;12.20;;;;;;;6.05;68.04;101699.59;10405840;28;20060;-67
2021/12/19 00:18:10;;;;;;;12.57;9.40;;;;;;;5.99;68.02;101707.47;10405539;28;20171;-67
2021/12/19 00:23:13;;;;;;;13.27;9.48;;;;;;;5.98;67.77;101700.56;10404810;28;20120;-67
2021/12/19 00:28:15;;;;;;;12.93;9.85;;;;;;;5.88;68.00;101702.38;10405075;28;20038;-67
2021/12/19 00:33:16;;;;;;;13.85;10.38;;;;;;;5.98;67.89;101685.81;10384605;28;20192;-67
2021/12/19 00:38:18;;;;;;;13.80;10.02;;;;;;;5.91;67.38;101680.72;10404958;28;20053;-67
2021/12/19 00:43:33;;;;;;;11.73;9.77;;;;;;;5.83;67.60;101674.78;10404712;28;20045;-67
2021/12/19 00:48:41;;;;;;;12.73;9.68;;;;;;;5.75;67.60;101659.31;10404504;28;20128;-66
2021/12/19 00:53:44;;;;;;;12.82;10.52;;;;;;;5.80;67.63;101662.69;10403793;28;20506;-66
2021/12/19 00:58:46;;;;;;;13.68;10.88;;;;;;;5.87;67.43;101663.47;10404050;28;20046;-66
2021/12/19 01:03:48;;;;;;;13.10;10.63;;;;;;;5.86;67.09;101657.41;10404198;28;20056;-66
2021/12/19 01:08:50;;;;;;;13.38;10.90;;;;;;;5.86;66.97;101661.78;10403671;28;20112;-66
2021/12/19 01:13:52;;;;;;;15.40;12.25;;;;;;;5.84;67.08;101666.13;10404509;28;20050;-66
2021/12/19 01:18:54;;;;;;;14.80;12.35;;;;;;;5.88;67.19;101658.25;10403921;28;20055;-66
2021/12/19 01:23:55;;;;;;;14.27;11.77;;;;;;;5.86;67.15;101660.00;10401719;28;20132;-67
2021/12/19 01:28:58;;;;;;;16.75;12.65;;;;;;;5.85;66.86;101660.03;10403663;28;20049;-66
2021/12/19 01:33:59;;;;;;;15.77;12.18;;;;;;;5.66;67.31;101661.13;10403742;28;20132;-66
2021/12/19 01:39:02;;;;;;;15.50;11.63;;;;;;;5.72;66.99;101654.13;10402595;28;20060;-66
2021/12/19 01:44:04;;;;;;;12.73;9.93;;;;;;;5.77;66.67;101644.56;10403464;28;20136;-66
2021/12/19 01:49:06;;;;;;;12.23;8.60;;;;;;;5.66;66.42;101635.19;10403675;28;20044;-67
2021/12/19 01:54:07;;;;;;;12.40;10.02;;;;;;;5.67;66.47;101645.56;10402968;28;20635;-67
2021/12/19 01:59:10;;;;;;;11.70;9.55;;;;;;;5.79;66.37;101637.63;10403885;28;20448;-67
2021/12/19 02:04:15;;;;;;;18.80;13.13;;;;;;;5.86;65.93;101631.44;10403169;28;20132;-66
2021/12/19 02:09:17;;;;;;;15.35;11.32;;;;;;;5.71;66.39;101630.81;10402421;28;20436;-66
2021/12/19 02:14:19;;;;;;;13.30;10.07;;;;;;;5.66;66.56;101619.59;10402748;28;20467;-66
2021/12/19 02:19:22;;;;;;;15.77;12.27;;;;;;;5.53;67.12;101618.94;10403277;28;20060;-66
2021/12/19 02:24:24;;;;;;;24.27;17.25;;;;;;;5.60;67.08;101614.50;10408698;28;20424;-66
2021/12/19 02:29:26;;;;;;;20.10;15.75;;;;;;;5.63;67.19;101624.84;10410058;28;20045;-66
2021/12/19 02:34:31;;;;;;;23.67;15.95;;;;;;;5.63;67.35;101610.16;10409990;28;20128;-66
2021/12/19 02:49:51;;;;;;;20.58;15.02;;;;;;;5.54;67.59;101592.94;10408870;28;20045;-66
2021/12/19 02:54:53;;;;;;;23.60;15.50;;;;;;;5.59;67.52;101579.91;10408873;28;20453;-66
2021/12/19 02:59:55;;;;;;;24.27;15.35;;;;;;;5.61;67.46;101587.69;10409290;28;20041;-66
2021/12/19 03:05:00;;;;;;;23.10;14.68;;;;;;;5.69;67.37;101594.50;10414661;28;20490;-66
2021/12/19 03:20:54;;;;;;;23.42;15.32;;;;;;;5.92;66.87;101569.03;10414970;28;20060;-66
2021/12/19 03:25:56;;;;;;;24.77;14.73;;;;;;;5.90;66.95;101565.63;10414181;28;20045;-66
2021/12/19 03:30:57;;;;;;;19.88;13.73;;;;;;;5.75;67.17;101570.19;10413793;28;20138;-66
2021/12/19 03:35:59;;;;;;;22.85;14.32;;;;;;;5.88;67.24;101558.75;10412809;28;20055;-66
2021/12/19 03:41:35;;;;;;;21.25;14.05;;;;;;;5.93;66.98;101549.13;10412894;28;20064;-66
2021/12/19 03:46:29;;;;;;;22.80;14.15;;;;;;;5.99;66.92;101544.72;10410983;28;20477;-67
2021/12/19 03:51:31;;;;;;;20.13;13.27;;;;;;;5.98;66.83;101539.56;10413947;28;20041;-67
2021/12/19 03:56:33;;;;;;;22.35;13.57;;;;;;;5.93;67.02;101542.22;10413109;28;20498;-66
2021/12/19 04:01:35;;;;;;;21.80;14.00;;;;;;;5.95;66.87;101532.66;10413476;28;20050;-66
2021/12/19 04:06:37;;;;;;;21.48;14.10;;;;;;;5.91;66.82;101530.13;10407721;28;20061;-66
2021/12/19 04:11:39;;;;;;;22.85;15.02;;;;;;;5.93;66.96;101513.66;10405242;28;20494;-66
2021/12/19 04:16:42;;;;;;;23.67;15.95;;;;;;;5.95;66.90;101506.69;10406310;28;20057;-66
2021/12/19 04:21:44;;;;;;;22.42;15.88;;;;;;;5.99;66.66;101502.31;10405463;28;20425;-66
2021/12/19 04:26:46;;;;;;;24.70;15.85;;;;;;;5.96;66.65;101492.81;10404307;28;20553;-67
2021/12/19 04:31:48;;;;;;;26.85;17.95;;;;;;;6.07;66.67;101484.84;10404669;28;20161;-66
2021/12/19 04:36:56;;;;;;;26.23;16.55;;;;;;;6.10;66.53;101485.66;10405732;28;20128;-68
2021/12/19 05:03:01;;;;;;;28.27;17.50;;;;;;;6.02;66.54;101460.72;10364496;28;20509;-66
2021/12/19 05:18:45;;;;;;;24.23;14.73;;;;;;;5.86;66.92;101434.13;10402302;28;20525;-66
2021/12/19 05:28:58;;;;;;;30.75;17.50;;;;;;;6.09;66.40;101441.53;10403498;28;20091;-66
2021/12/19 05:34:00;;;;;;;29.30;16.52;;;;;;;5.99;66.67;101440.84;10368826;28;20052;-66
2021/12/19 05:49:43;;;;;;;31.30;17.73;;;;;;;5.95;67.02;101434.00;10403692;28;20041;-67
2021/12/19 05:54:44;;;;;;;30.83;17.00;;;;;;;6.05;66.75;101439.88;10404396;28;20041;-66
2021/12/19 05:59:46;;;;;;;35.25;18.27;;;;;;;5.97;66.92;101434.81;10410650;28;20049;-67
2021/12/19 06:04:49;;;;;;;34.60;18.05;;;;;;;6.05;66.87;101432.06;10411022;28;20104;-66
2021/12/19 06:09:50;;;;;;;29.17;17.45;;;;;;;6.07;66.64;101431.19;10411698;28;20136;-67
2021/12/19 06:14:53;;;;;;;30.35;16.92;;;;;;;6.00;66.78;101426.13;10410196;28;20053;-67
2021/12/19 06:19:54;;;;;;;31.17;17.77;;;;;;;6.02;66.76;101426.97;10410373;28;20049;-67
2021/12/19 06:24:56;;;;;;;26.65;16.25;;;;;;;6.09;66.58;101426.81;10410540;28;20501;-67
2021/12/19 06:29:58;;;;;;;27.90;16.92;;;;;;;6.12;66.52;101433.69;10410083;28;20041;-67
2021/12/19 06:35:06;;;;;;;31.25;17.70;;;;;;;6.14;66.39;101424.97;10409250;28;20136;-67
2021/12/19 06:40:10;;;;;;;27.48;16.65;;;;;;;6.18;66.29;101412.81;10408856;28;20128;-67
2021/12/19 06:45:12;;;;;;;26.58;16.52;;;;;;;6.01;66.44;101409.66;10409131;28;20059;-67
2021/12/19 06:50:15;;;;;;;26.75;17.10;;;;;;;6.04;66.71;101404.41;10409027;28;20047;-67
2021/12/19 06:55:18;;;;;;;27.80;17.25;;;;;;;6.09;66.53;101407.75;10409350;28;20048;-67
2021/12/19 07:00:23;;;;;;;25.05;15.77;;;;;;;6.07;66.31;101397.41;10408394;28;20096;-67
2021/12/19 07:05:25;;;;;;;26.05;16.88;;;;;;;6.13;66.21;101392.09;10408545;28;20053;-67
2021/12/19 07:10:27;;;;;;;28.63;17.80;;;;;;;6.15;66.26;101374.75;10408389;28;20568;-67
2021/12/19 07:15:29;;;;;;;25.02;16.70;;;;;;;6.11;66.45;101378.28;10407973;28;20053;-67
2021/12/19 07:20:35;;;;;;;25.55;17.05;;;;;;;6.22;66.12;101383.28;10408360;28;20456;-67
2021/12/19 07:25:37;;;;;;;28.95;19.25;;;;;;;6.31;65.83;101381.41;10407938;28;20490;-67
2021/12/19 07:30:39;;;;;;;27.35;17.58;;;;;;;6.35;65.81;101383.03;10407242;28;20409;-67
2021/12/19 07:35:45;;;;;;;28.10;17.55;;;;;;;6.33;65.75;101383.97;10407594;28;20448;-67
2021/12/19 07:40:50;;;;;;;26.60;18.33;;;;;;;6.35;65.76;101370.06;10406505;28;20081;-67
2021/12/19 07:45:51;;;;;;;27.05;18.20;;;;;;;6.39;65.64;101367.41;10406649;28;20057;-67
2021/12/19 07:50:54;;;;;;;27.83;18.70;;;;;;;6.32;65.75;101372.72;10407252;28;20121;-67
2021/12/19 07:55:55;;;;;;;27.67;18.83;;;;;;;6.36;65.64;101363.13;10406897;28;20555;-67
2021/12/19 08:00:57;;;;;;;30.63;20.00;;;;;;;6.48;65.33;101354.22;10422194;28;20056;-67
2021/12/19 08:05:59;;;;;;;28.75;19.30;;;;;;;6.34;65.51;101355.38;10403555;28;20486;-66
2021/12/19 08:16:21;;;;;;;32.03;19.83;;;;;;;6.39;65.31;101349.22;10404876;28;20140;-66
2021/12/19 08:21:23;;;;;;;29.65;18.65;;;;;;;6.42;65.45;101342.22;10403817;28;20549;-66
2021/12/19 08:26:25;;;;;;;28.10;17.83;;;;;;;6.43;65.04;101343.06;10404939;28;20352;-67
2021/12/19 08:31:27;;;;;;;26.90;17.77;;;;;;;6.41;65.05;101347.44;10404104;28;20053;-67
2021/12/19 08:36:29;;;;;;;26.40;17.67;;;;;;;6.44;65.01;101344.78;10405823;28;20045;-67
2021/12/19 08:41:31;;;;;;;27.10;17.20;;;;;;;6.54;65.04;101343.69;10405357;28;20042;-67
2021/12/19 08:46:35;;;;;;;27.58;18.70;;;;;;;6.47;64.90;101335.16;10405518;28;20453;-67
2021/12/19 08:51:39;;;;;;;28.15;18.40;;;;;;;6.56;64.86;101334.13;10405365;28;20046;-67
2021/12/19 08:56:41;;;;;;;26.30;17.73;;;;;;;6.57;64.93;101325.44;10405717;28;20046;-68
2021/12/19 09:01:43;;;;;;;28.77;19.63;;;;;;;6.63;64.68;101314.91;10405268;28;20076;-67
2021/12/19 09:06:49;;;;;;;30.50;19.88;;;;;;;6.66;64.67;101307.91;10382956;28;20092;-65
2021/12/19 09:11:52;;;;;;;31.40;19.10;;;;;;;6.71;64.33;101316.47;10391180;28;20045;-66
2021/12/19 09:16:54;;;;;;;28.25;19.70;;;;;;;6.73;64.38;101313.84;10383558;28;20501;-66
2021/12/19 09:21:56;;;;;;;29.73;20.10;;;;;;;6.75;64.48;101315.50;10388314;28;20040;-67
2021/12/19 09:26:58;;;;;;;28.23;18.60;;;;;;;6.84;64.24;101311.81;10393239;28;20111;-67
2021/12/19 09:31:59;;;;;;;27.55;18.30;;;;;;;6.75;64.33;101315.50;10397972;28;20504;-67
2021/12/19 09:37:01;;;;;;;26.27;18.65;;;;;;;6.81;64.22;101319.72;10387566;28;20053;-67
2021/12/19 09:42:09;;;;;;;28.05;19.23;;;;;;;6.85;64.22;101306.63;10398714;28;20048;-66
2021/12/19 09:47:11;;;;;;;27.90;18.70;;;;;;;6.91;64.05;101313.41;10405047;28;20053;-67
2021/12/19 09:52:13;;;;;;;24.30;17.05;;;;;;;6.95;63.95;101287.31;10404799;28;20041;-72
2021/12/19 09:57:15;;;;;;;28.85;17.73;;;;;;;7.00;63.83;101284.56;10407530;28;20052;-71
2021/12/19 10:02:17;;;;;;;26.88;18.25;;;;;;;6.99;63.89;101288.94;10406852;28;20037;-72
2021/12/19 10:07:28;;;;;;;27.55;17.10;;;;;;;6.91;64.18;101296.06;10407424;28;20489;-73
2021/12/19 10:17:38;;;;;;;25.52;16.80;;;;;;;7.00;63.91;101274.16;10407112;28;20130;-72
2021/12/19 10:22:46;;;;;;;26.98;17.55;;;;;;;7.09;63.78;101273.97;10407130;28;20545;-72
2021/12/19 10:27:58;;;;;;;26.17;17.38;;;;;;;6.91;63.74;101270.06;10408806;28;20053;-72
2021/12/19 10:33:03;;;;;;;27.35;17.02;;;;;;;7.64;63.03;101253.44;10407805;28;20213;-72
2021/12/19 10:38:06;;;;;;;31.75;18.52;;;;;;;7.36;63.16;101242.06;10405054;28;20041;-72
2021/12/19 10:43:15;;;;;;;27.63;17.52;;;;;;;7.07;63.69;101244.53;10406429;28;20077;-72
2021/12/19 10:48:25;;;;;;;26.75;16.38;;;;;;;7.12;63.43;101233.13;10405801;28;20072;-72
2021/12/19 10:53:31;;;;;;;24.08;16.73;;;;;;;6.91;63.57;101225.84;10406981;28;20128;-72
2021/12/19 10:58:40;;;;;;;24.05;16.05;;;;;;;6.85;63.75;101220.81;10406364;28;20073;-72
2021/12/19 11:03:55;;;;;;;26.83;18.00;;;;;;;7.00;63.55;101206.53;10405818;28;20045;-72
2021/12/19 11:08:59;;;;;;;26.02;16.88;;;;;;;7.03;63.42;101201.28;10408482;28;20057;-72
2021/12/19 11:14:03;;;;;;;26.83;16.77;;;;;;;6.80;63.69;101201.84;10405212;28;20448;-72
2021/12/19 11:19:05;;;;;;;26.38;16.25;;;;;;;6.82;63.72;101192.25;10407982;28;20144;-72
2021/12/19 11:24:13;;;;;;;28.38;18.02;;;;;;;6.82;63.84;101176.66;10405952;28;20155;-72
2021/12/19 11:29:15;;;;;;;25.38;17.52;;;;;;;6.94;63.64;101172.88;10407485;28;20167;-72
2021/12/19 11:34:31;;;;;;;29.98;19.10;;;;;;;6.88;63.44;101171.31;10405905;28;20084;-72
2021/12/19 11:39:39;;;;;;;30.85;19.25;;;;;;;6.77;63.79;101159.47;10402076;28;20045;-72
2021/12/19 11:45:08;;;;;;;30.40;19.52;;;;;;;6.22;64.54;101160.75;10405260;28;20121;-72
2021/12/19 11:50:22;;;;;;;29.65;19.52;;;;;;;6.60;64.17;101149.47;10403793;28;20405;-72
2021/12/19 11:55:27;;;;;;;26.35;17.88;;;;;;;6.42;64.39;101149.06;10417782;28;20052;-72
2021/12/19 12:00:52;;;;;;;27.77;18.55;;;;;;;6.34;64.29;101136.25;10406152;28;20125;-72
2021/12/19 12:06:20;;;;;;;22.27;15.60;;;;;;;6.16;64.46;101137.50;10405283;28;20138;-72
2021/12/19 12:11:22;;;;;;;21.08;15.30;;;;;;;6.12;64.61;101135.84;10402309;28;20132;-72
2021/12/19 12:16:39;;;;;;;20.42;14.75;;;;;;;5.97;64.29;101125.81;10402674;28;20502;-72
2021/12/19 12:21:46;;;;;;;17.25;12.18;;;;;;;6.13;64.20;101111.59;10404721;28;20048;-71
2021/12/19 12:27:00;;;;;;;14.32;9.73;;;;;;;6.11;63.92;101102.97;10402874;28;20490;-72
2021/12/19 12:32:05;;;;;;;16.13;10.50;;;;;;;6.11;64.21;101102.13;10403674;28;20186;-72
2021/12/19 12:37:07;;;;;;;12.30;8.90;;;;;;;6.14;64.17;101092.50;10404143;28;20103;-72
2021/12/19 12:42:11;;;;;;;11.35;8.30;;;;;;;6.24;63.84;101094.03;10402495;28;20069;-72
2021/12/19 12:47:15;;;;;;;9.85;7.78;;;;;;;6.15;63.86;101089.03;10400885;28;20160;-71
2021/12/19 12:52:20;;;;;;;8.95;7.63;;;;;;;6.21;63.77;101069.84;10404239;28;20045;-73
2021/12/19 12:57:22;;;;;;;8.88;7.43;;;;;;;6.23;63.89;101071.53;10401271;28;20056;-73
2021/12/19 13:02:31;;;;;;;10.45;8.02;;;;;;;6.12;64.01;101057.94;10402223;28;20524;-74
2021/12/19 13:07:33;;;;;;;17.38;14.20;;;;;;;6.14;64.06;101071.72;10402497;28;20049;-74
2021/12/19 13:12:37;;;;;;;37.95;29.50;;;;;;;6.30;63.89;101054.94;10403270;28;20136;-74
2021/12/19 13:17:45;;;;;;;11.02;7.75;;;;;;;6.35;63.20;101057.41;10390064;28;20050;-73
2021/12/19 13:22:55;;;;;;;10.05;7.72;;;;;;;6.14;63.82;101050.13;10404839;28;20052;-74
2021/12/19 13:28:00;;;;;;;11.73;8.37;;;;;;;6.25;63.96;101051.59;10399382;28;20057;-73
2021/12/19 13:33:04;;;;;;;8.60;7.07;;;;;;;6.20;63.99;101040.44;10399173;28;20049;-74
2021/12/19 13:38:07;;;;;;;8.82;7.22;;;;;;;6.27;63.82;101029.03;10402339;28;20057;-74
2021/12/19 13:43:21;;;;;;;9.38;6.93;;;;;;;6.31;63.58;101037.59;10402684;28;20048;-74
2021/12/19 13:48:29;;;;;;;9.32;7.18;;;;;;;6.26;63.52;101031.66;10402598;28;20059;-73
2021/12/19 13:53:34;;;;;;;9.35;7.10;;;;;;;6.01;64.48;101015.78;10401664;28;20469;-74
2021/12/19 13:58:49;;;;;;;8.38;6.60;;;;;;;6.19;63.83;101012.75;10400828;28;20060;-73
2021/12/19 14:03:59;;;;;;;9.32;7.10;;;;;;;6.22;63.95;101014.44;10402230;28;20137;-73
2021/12/19 14:09:16;;;;;;;10.00;7.63;;;;;;;6.16;63.93;101018.03;10402079;28;20064;-73
2021/12/19 14:14:30;;;;;;;9.52;7.68;;;;;;;6.05;64.49;101007.03;10399764;28;20244;-74
2021/12/19 14:19:39;;;;;;;9.20;6.53;;;;;;;5.91;64.54;100998.72;10407716;28;20103;-74
2021/12/19 14:24:47;;;;;;;9.20;7.60;;;;;;;5.94;64.74;101001.25;10410028;28;20080;-73
2021/12/19 14:29:55;;;;;;;10.48;8.10;;;;;;;6.17;64.47;100995.50;10406031;28;20132;-75
2021/12/19 14:35:03;;;;;;;8.40;7.18;;;;;;;6.32;64.13;100992.56;10407219;28;20071;-75
2021/12/19 14:40:20;;;;;;;9.35;7.75;;;;;;;6.27;64.52;100992.66;10409046;28;20085;-73
2021/12/19 14:45:23;;;;;;;9.57;7.97;;;;;;;6.23;64.48;100993.59;10405121;28;20049;-74
2021/12/19 14:50:31;;;;;;;9.88;7.68;;;;;;;6.08;64.74;100987.94;10409859;28;20049;-74
2021/12/19 14:55:50;;;;;;;9.45;7.65;;;;;;;6.02;64.78;100982.91;10390507;28;20400;-74
2021/12/19 15:00:59;;;;;;;10.93;8.43;;;;;;;6.03;65.07;100969.00;10406375;28;20049;-72
2021/12/19 15:06:10;;;;;;;9.57;8.13;;;;;;;6.04;64.94;100968.97;10405965;28;20068;-72
2021/12/19 15:11:12;;;;;;;15.25;9.07;;;;;;;6.07;65.08;100973.25;10407055;28;20048;-73
2021/12/19 15:16:14;;;;;;;10.80;9.35;;;;;;;6.05;64.90;100959.44;10405913;28;20099;-72
2021/12/19 15:21:16;;;;;;;12.45;10.38;;;;;;;6.07;65.01;100955.06;10407111;28;20056;-72
2021/12/19 15:26:18;;;;;;;12.90;10.70;;;;;;;6.02;65.12;100962.97;10407454;28;20143;-72
2021/12/19 15:31:22;;;;;;;12.98;11.10;;;;;;;5.97;65.16;100959.63;10406291;28;20049;-71
2021/12/19 15:36:24;;;;;;;13.18;10.75;;;;;;;6.09;64.77;100969.72;10405375;28;20041;-72
2021/12/19 15:41:26;;;;;;;14.07;12.02;;;;;;;6.33;64.37;100969.13;10401997;28;20050;-72
2021/12/19 15:46:28;;;;;;;14.40;11.40;;;;;;;6.18;64.50;100959.09;10405850;28;20049;-71
2021/12/19 15:51:31;;;;;;;12.90;10.38;;;;;;;6.04;64.86;100963.78;10407259;28;20541;-72
2021/12/19 15:56:33;;;;;;;11.55;9.80;;;;;;;6.13;64.74;100965.28;10404590;28;20049;-73
2021/12/19 16:01:35;;;;;;;11.93;10.13;;;;;;;6.29;64.47;100962.31;10403375;28;20049;-73
2021/12/19 16:06:36;;;;;;;13.63;10.57;;;;;;;6.17;64.68;100967.78;10404615;28;20136;-74
2021/12/19 16:11:38;;;;;;;13.52;10.85;;;;;;;6.08;64.88;100972.38;10406352;28;20045;-73
2021/12/19 16:16:40;;;;;;;15.68;12.02;;;;;;;5.89;64.63;100977.16;10395924;28;20461;-74
2021/12/19 16:21:42;;;;;;;19.10;12.82;;;;;;;5.98;64.06;100965.69;10404046;28;20548;-74
2021/12/19 16:26:46;;;;;;;16.70;13.40;;;;;;;6.03;63.86;100956.03;10391345;28;20045;-73
2021/12/19 16:31:47;;;;;;;15.98;12.82;;;;;;;6.09;63.56;100948.94;10402771;28;20136;-74
2021/12/19 16:36:49;;;;;;;17.83;13.13;;;;;;;5.92;63.43;100953.69;10404330;28;20048;-73
2021/12/19 16:47:03;;;;;;;15.52;11.98;;;;;;;5.71;63.83;100946.44;10402057;28;20136;-74
2021/12/19 16:52:05;;;;;;;16.83;12.95;;;;;;;5.59;63.95;100949.31;10404407;28;20388;-74
2021/12/19 16:57:08;;;;;;;17.75;13.25;;;;;;;5.81;63.41;100942.72;10400965;28;20049;-74
2021/12/19 17:02:11;;;;;;;19.92;13.57;;;;;;;5.76;63.66;100930.75;10402352;28;20506;-73
2021/12/19 17:07:13;;;;;;;16.48;13.40;;;;;;;5.87;63.24;100950.38;10402189;28;20532;-73
2021/12/19 17:12:17;;;;;;;18.48;14.30;;;;;;;5.93;63.23;100937.22;10404148;28;20041;-73
2021/12/19 17:17:18;;;;;;;22.48;15.27;;;;;;;6.10;62.97;100929.84;10398342;28;20057;-73
2021/12/19 17:22:20;;;;;;;20.52;14.80;;;;;;;6.09;62.88;100930.75;10404777;28;20136;-74
2021/12/19 17:27:22;;;;;;;18.48;14.75;;;;;;;6.03;63.13;100924.88;10402612;28;20137;-75
2021/12/19 17:32:24;;;;;;;17.13;13.38;;;;;;;5.99;63.00;100929.28;10401741;28;20132;-74
2021/12/19 17:37:27;;;;;;;18.00;13.15;;;;;;;5.94;63.12;100932.91;10401759;28;20061;-73
2021/12/19 17:42:29;;;;;;;17.70;14.23;;;;;;;6.09;63.17;100922.97;10400464;28;20056;-74
2021/12/19 17:47:33;;;;;;;16.45;12.35;;;;;;;6.02;63.23;100933.56;10400207;28;20053;-73
2021/12/19 17:52:35;;;;;;;17.98;12.98;;;;;;;5.97;63.22;100920.69;10405491;28;20045;-74
2021/12/19 17:57:37;;;;;;;16.10;12.57;;;;;;;6.10;63.01;100922.06;10427327;28;20056;-73
2021/12/19 18:02:39;;;;;;;15.43;10.90;;;;;;;6.13;62.82;100932.38;10411138;28;20141;-73
2021/12/19 18:07:43;;;;;;;15.25;11.23;;;;;;;6.22;62.79;100915.72;10411697;28;20417;-74
2021/12/19 18:12:46;;;;;;;13.25;10.35;;;;;;;6.23;62.49;100928.66;10408482;28;20513;-74
2021/12/19 18:17:49;;;;;;;15.23;11.05;;;;;;;6.25;62.60;100908.72;10407442;28;20136;-74
2021/12/19 18:22:53;;;;;;;16.20;11.38;;;;;;;6.19;62.79;100913.19;10409011;28;20100;-73
2021/12/19 18:27:54;;;;;;;15.30;11.60;;;;;;;6.20;62.86;100914.91;10407980;28;20061;-73
2021/12/19 18:32:57;;;;;;;15.27;10.52;;;;;;;6.16;62.56;100916.75;10406656;28;20052;-73
2021/12/19 18:38:05;;;;;;;14.23;10.35;;;;;;;6.25;62.57;100932.09;10408746;28;20386;-73
2021/12/19 18:53:19;;;;;;;8.50;6.60;;;;;;;6.08;62.07;100920.44;10408355;28;20142;-72
2021/12/19 18:58:26;;;;;;;9.83;7.70;;;;;;;6.06;62.34;100917.00;10409196;28;20386;-72
2021/12/19 19:08:36;;;;;;;13.35;7.85;;;;;;;6.34;61.86;100907.63;10403663;28;20058;-73
2021/12/19 19:13:38;;;;;;;11.63;7.63;;;;;;;6.38;61.70;100904.06;10404372;28;20128;-73
2021/12/19 19:18:39;;;;;;;9.15;7.05;;;;;;;6.25;61.63;100902.66;10406168;28;20071;-73
2021/12/19 19:23:41;;;;;;;11.68;8.32;;;;;;;6.38;61.75;100908.38;10384229;28;20115;-73
2021/12/19 19:28:44;;;;;;;12.52;8.48;;;;;;;6.43;61.76;100896.97;10396309;28;20056;-73
2021/12/19 19:33:45;;;;;;;12.35;8.73;;;;;;;6.30;62.01;100906.88;10403810;28;20573;-73
2021/12/19 19:38:56;;;;;;;12.88;8.57;;;;;;;6.28;62.09;100897.41;10403348;28;20045;-73
2021/12/19 19:44:15;;;;;;;13.57;9.18;;;;;;;6.30;62.13;100919.00;10392043;28;20200;-74
2021/12/19 19:49:19;;;;;;;15.25;9.95;;;;;;;6.32;62.21;100899.88;10390147;28;20053;-73
2021/12/19 19:54:24;;;;;;;14.63;9.65;;;;;;;6.33;62.32;100906.78;10401624;28;20069;-74
2021/12/19 19:59:29;;;;;;;13.65;8.95;;;;;;;6.29;62.71;100910.34;10402031;28;20141;-74
2021/12/19 20:04:33;;;;;;;12.55;8.88;;;;;;;6.36;62.49;100905.84;10396826;28;20108;-74
2021/12/19 20:09:36;;;;;;;13.25;9.23;;;;;;;6.41;62.68;100908.31;10393854;28;20053;-74
2021/12/19 20:14:39;;;;;;;15.57;9.73;;;;;;;6.35;62.73;100902.38;10394575;28;20494;-73
2021/12/19 20:19:43;;;;;;;12.68;8.63;;;;;;;6.34;62.95;100903.28;10381791;28;20076;-73
2021/12/19 20:24:47;;;;;;;12.75;8.80;;;;;;;6.38;62.85;100900.59;10396987;28;20469;-74
2021/12/19 20:29:50;;;;;;;13.48;9.20;;;;;;;6.35;62.96;100910.19;10403387;28;20136;-74
2021/12/19 20:34:51;;;;;;;13.85;9.32;;;;;;;6.38;63.15;100903.19;10393774;28;20098;-74
2021/12/19 20:39:53;;;;;;;14.00;9.95;;;;;;;6.47;63.10;100916.78;10380374;28;20091;-74
2021/12/19 20:44:55;;;;;;;11.85;8.20;;;;;;;6.40;63.42;100912.66;10383227;28;20053;-73
2021/12/19 20:49:57;;;;;;;12.23;8.80;;;;;;;6.50;63.51;100897.66;10418197;28;20057;-73
2021/12/19 20:54:59;;;;;;;11.70;9.63;;;;;;;6.47;63.39;100918.56;10414578;28;20100;-74
2021/12/19 21:00:00;;;;;;;14.02;10.32;;;;;;;6.31;63.71;100900.75;10400927;28;20092;-73
2021/12/19 21:05:04;;;;;;;13.27;9.98;;;;;;;6.29;64.04;100901.69;10400833;28;20056;-73
2021/12/19 21:10:09;;;;;;;12.80;9.52;;;;;;;6.31;63.91;100905.09;10401036;28;20453;-73
2021/12/19 21:20:17;;;;;;;12.85;9.02;;;;;;;6.27;64.20;100893.94;10386830;28;20140;-72
2021/12/19 21:25:19;;;;;;;12.55;8.70;;;;;;;6.16;64.43;100901.16;10386796;28;20045;-72
2021/12/19 21:30:22;;;;;;;14.07;9.77;;;;;;;6.09;64.75;100899.59;10409082;28;20077;-73
2021/12/19 21:40:37;;;;;;;12.85;9.35;;;;;;;6.14;64.86;100882.13;10395481;28;20087;-73
2021/12/19 21:45:40;;;;;;;13.80;9.93;;;;;;;6.24;64.76;100877.56;10408077;28;20067;-72
2021/12/19 21:50:43;;;;;;;13.38;9.57;;;;;;;6.25;64.67;100880.16;10408765;28;20140;-72
2021/12/19 21:55:44;;;;;;;13.27;9.80;;;;;;;6.28;64.79;100877.47;10407973;28;20122;-72
2021/12/19 22:00:46;;;;;;;14.73;9.55;;;;;;;6.29;64.51;100876.56;10409526;28;20163;-72
2021/12/19 22:05:48;;;;;;;12.85;8.75;;;;;;;6.22;64.74;100888.00;10406062;28;20489;-71
2021/12/19 22:10:50;;;;;;;11.27;8.52;;;;;;;6.24;64.72;100874.97;10408382;28;20124;-72
2021/12/19 22:15:52;;;;;;;10.50;8.50;;;;;;;6.28;64.70;100874.88;10407512;28;20053;-72
2021/12/19 22:20:54;;;;;;;10.93;8.65;;;;;;;6.32;64.78;100879.09;10407673;28;20494;-71
2021/12/19 22:25:55;;;;;;;11.18;7.90;;;;;;;6.34;64.54;100877.31;10407109;28;20080;-72
2021/12/19 22:31:00;;;;;;;16.45;11.30;;;;;;;6.42;64.30;100873.63;10409585;28;20054;-71
2021/12/19 22:36:03;;;;;;;17.88;13.30;;;;;;;6.40;64.20;100852.03;10408318;28;20072;-72
2021/12/19 22:41:05;;;;;;;9.52;7.97;;;;;;;6.31;64.43;100861.78;10407606;28;20144;-71
2021/12/19 22:46:07;;;;;;;10.98;8.15;;;;;;;6.27;64.43;100838.53;10405976;28;20129;-72
2021/12/19 22:51:08;;;;;;;10.27;8.40;;;;;;;6.22;64.45;100835.19;10407688;28;20045;-66
2021/12/19 22:56:10;;;;;;;11.18;7.40;;;;;;;6.18;64.61;100847.44;10405119;28;20054;-66
2021/12/19 23:01:13;;;;;;;8.70;7.30;;;;;;;6.17;64.63;100837.91;10405068;28;20053;-66
2021/12/19 23:06:15;;;;;;;9.68;7.53;;;;;;;6.07;64.84;100841.66;10408004;28;20083;-66
2021/12/19 23:11:20;;;;;;;10.38;7.72;;;;;;;6.04;64.85;100833.94;10423060;28;20129;-66
2021/12/19 23:16:40;;;;;;;11.35;8.30;;;;;;;6.13;64.73;100835.44;10420714;28;20049;-66
2021/12/19 23:21:41;;;;;;;10.13;7.32;;;;;;;6.07;64.73;100831.28;10406266;28;20049;-66
2021/12/19 23:26:43;;;;;;;11.38;7.78;;;;;;;6.04;65.00;100827.91;10404616;28;20516;-66
2021/12/19 23:31:46;;;;;;;9.50;7.78;;;;;;;6.05;64.92;100834.78;10403010;28;20038;-66
2021/12/19 23:42:12;;;;;;;11.20;7.70;;;;;;;5.99;64.96;100816.78;10406818;28;20124;-66
2021/12/19 23:47:14;;;;;;;10.75;8.25;;;;;;;6.05;64.62;100807.09;10407332;28;20053;-66
2021/12/19 23:52:16;;;;;;;12.90;8.70;;;;;;;5.96;64.80;100802.13;10406664;28;20045;-66
2021/12/19 23:57:18;;;;;;;11.38;9.15;;;;;;;5.95;64.85;100797.00;10405320;28;20573;-66
